createdAt,value
2018-03-22T00:00:25.458Z,46.50
2018-03-22T00:02:52.636Z,47.10
2018-03-22T00:05:19.931Z,46.60
2018-03-22T00:07:46.363Z,46.70
2018-03-22T00:10:12.810Z,46.70
2018-03-22T00:12:39.221Z,46.70
2018-03-22T00:15:05.603Z,46.80
2018-03-22T00:17:32.022Z,46.30
2018-03-22T00:19:58.434Z,46.80
2018-03-22T00:22:37.075Z,46.70
2018-03-22T00:25:04.250Z,47.20
2018-03-22T00:27:31.468Z,46.70
2018-03-22T00:29:57.859Z,46.70
2018-03-22T00:32:24.249Z,45.90
2018-03-22T00:34:50.649Z,46.70
2018-03-22T00:37:17.061Z,46.60
2018-03-22T00:39:43.513Z,46.70
2018-03-22T00:42:09.867Z,46.70
2018-03-22T00:44:36.284Z,46.70
2018-03-22T00:47:02.682Z,46.70
2018-03-22T00:49:29.151Z,46.60
2018-03-22T00:51:55.556Z,46.70
2018-03-22T00:54:21.951Z,46.60
2018-03-22T00:56:48.341Z,46.60
2018-03-22T00:59:14.738Z,47.10
2018-03-22T01:01:41.104Z,46.60
2018-03-22T01:04:07.513Z,48.10
2018-03-22T01:06:33.871Z,47.30
2018-03-22T01:09:00.282Z,47.60
2018-03-22T01:11:26.672Z,47.70
2018-03-22T01:13:53.462Z,46.60
2018-03-22T01:16:19.841Z,46.60
2018-03-22T01:18:46.239Z,47.00
2018-03-22T01:21:12.673Z,47.10
2018-03-22T01:23:39.185Z,47.50
2018-03-22T01:26:05.566Z,47.30
2018-03-22T01:28:31.972Z,47.50
2018-03-22T01:30:58.416Z,46.60
2018-03-22T01:33:25.559Z,47.10
2018-03-22T01:35:52.087Z,47.10
2018-03-22T01:38:18.453Z,48.00
2018-03-22T01:40:44.852Z,47.60
2018-03-22T01:43:11.205Z,47.50
2018-03-22T01:45:37.628Z,48.40
2018-03-22T01:48:04.775Z,47.90
2018-03-22T01:50:31.205Z,47.90
2018-03-22T01:53:12.828Z,47.90
2018-03-22T01:55:39.293Z,47.80
2018-03-22T01:58:05.754Z,48.20
2018-03-22T02:00:32.148Z,47.90
2018-03-22T02:02:58.585Z,48.10
2018-03-22T02:05:24.981Z,47.90
2018-03-22T02:07:51.325Z,47.90
2018-03-22T02:10:17.745Z,48.00
2018-03-22T02:12:44.102Z,48.00
2018-03-22T02:15:10.542Z,48.00
2018-03-22T02:17:36.943Z,48.00
2018-03-22T02:20:03.384Z,48.00
2018-03-22T02:22:29.804Z,49.00
2018-03-22T02:24:56.201Z,48.20
2018-03-22T02:27:23.361Z,47.50
2018-03-22T02:29:49.790Z,47.50
2018-03-22T02:32:16.221Z,48.20
2018-03-22T02:34:42.619Z,48.30
2018-03-22T02:37:09.026Z,48.10
2018-03-22T02:39:36.252Z,48.80
2018-03-22T02:42:02.687Z,48.80
2018-03-22T02:44:29.066Z,48.40
2018-03-22T02:46:55.525Z,48.10
2018-03-22T02:49:21.962Z,48.00
2018-03-22T02:51:48.359Z,47.40
2018-03-22T02:54:14.753Z,48.00
2018-03-22T02:56:41.119Z,47.60
2018-03-22T02:59:07.634Z,48.50
2018-03-22T03:01:34.021Z,48.80
2018-03-22T03:04:00.390Z,49.20
2018-03-22T03:06:26.774Z,48.80
2018-03-22T03:08:53.240Z,48.70
2018-03-22T03:11:19.647Z,48.40
2018-03-22T03:13:46.151Z,48.40
2018-03-22T03:16:12.569Z,48.40
2018-03-22T03:18:38.955Z,49.00
2018-03-22T03:21:05.361Z,48.60
2018-03-22T03:23:32.478Z,48.90
2018-03-22T03:25:58.865Z,48.90
2018-03-22T03:28:25.258Z,49.20
2018-03-22T03:30:52.370Z,48.60
2018-03-22T03:33:18.741Z,48.60
2018-03-22T03:35:45.929Z,49.70
2018-03-22T03:38:12.306Z,49.10
2018-03-22T03:40:38.703Z,49.10
2018-03-22T03:43:05.120Z,48.50
2018-03-22T03:45:32.237Z,48.90
2018-03-22T03:47:59.365Z,49.10
2018-03-22T03:50:25.770Z,49.00
2018-03-22T03:52:52.154Z,48.50
2018-03-22T03:55:18.570Z,48.50
2018-03-22T03:57:45.785Z,48.90
2018-03-22T04:00:12.182Z,48.90
2018-03-22T04:02:38.542Z,48.30
2018-03-22T04:05:04.940Z,48.10
2018-03-22T04:07:31.321Z,47.90
2018-03-22T04:09:57.690Z,48.80
2018-03-22T04:12:24.042Z,48.90
2018-03-22T04:14:50.454Z,48.20
2018-03-22T04:17:17.582Z,47.80
2018-03-22T04:19:44.730Z,48.20
2018-03-22T04:22:11.951Z,48.80
2018-03-22T04:24:38.341Z,48.80
2018-03-22T04:27:04.763Z,48.10
2018-03-22T04:29:31.213Z,48.10
2018-03-22T04:31:57.596Z,48.30
2018-03-22T04:34:24.005Z,47.90
2018-03-22T04:36:50.411Z,47.80
2018-03-22T04:39:16.795Z,47.60
2018-03-22T04:41:44.019Z,47.50
2018-03-22T04:44:10.457Z,47.50
2018-03-22T04:46:36.898Z,47.40
2018-03-22T04:49:03.312Z,48.20
2018-03-22T04:51:29.712Z,48.40
2018-03-22T04:53:56.117Z,47.70
2018-03-22T04:56:22.641Z,48.40
2018-03-22T04:58:49.021Z,48.60
2018-03-22T05:01:15.462Z,49.00
2018-03-22T05:03:41.858Z,48.60
2018-03-22T05:06:08.231Z,49.00
2018-03-22T05:08:34.610Z,48.50
2018-03-22T05:11:01.009Z,49.00
2018-03-22T05:13:27.497Z,48.80
2018-03-22T05:15:53.887Z,48.80
2018-03-22T05:18:21.026Z,48.20
2018-03-22T05:20:47.413Z,48.10
2018-03-22T05:23:13.829Z,47.30
2018-03-22T05:25:40.266Z,47.80
2018-03-22T05:28:06.707Z,47.60
2018-03-22T05:30:33.185Z,46.80
2018-03-22T05:32:59.542Z,47.20
2018-03-22T05:35:26.029Z,47.00
2018-03-22T05:37:52.653Z,46.70
2018-03-22T05:40:19.117Z,46.80
2018-03-22T05:42:45.501Z,47.00
2018-03-22T05:45:11.932Z,46.40
2018-03-22T05:47:38.305Z,46.40
2018-03-22T05:50:05.455Z,46.50
2018-03-22T05:52:31.936Z,46.50
2018-03-22T05:54:58.370Z,46.40
2018-03-22T05:57:24.742Z,46.50
2018-03-22T05:59:51.127Z,46.50
2018-03-22T06:02:17.553Z,46.50
2018-03-22T06:04:43.985Z,46.50
2018-03-22T06:07:10.374Z,46.40
2018-03-22T06:09:36.814Z,46.70
2018-03-22T06:12:04.071Z,46.60
2018-03-22T06:14:31.242Z,46.60
2018-03-22T06:16:57.614Z,46.60
2018-03-22T06:19:24.050Z,45.80
2018-03-22T06:21:50.414Z,46.50
2018-03-22T06:24:16.916Z,46.70
2018-03-22T06:26:43.299Z,46.80
2018-03-22T06:29:10.453Z,46.40
2018-03-22T06:31:36.872Z,46.40
2018-03-22T06:34:03.250Z,45.20
2018-03-22T06:36:29.741Z,45.90
2018-03-22T06:38:56.149Z,45.30
2018-03-22T06:41:23.337Z,45.90
2018-03-22T06:43:49.728Z,45.80
2018-03-22T06:46:17.013Z,44.60
2018-03-22T06:48:43.441Z,44.60
2018-03-22T06:51:09.874Z,43.90
2018-03-22T06:53:36.312Z,43.60
2018-03-22T06:56:02.843Z,42.30
2018-03-22T06:58:29.211Z,42.60
2018-03-22T07:00:55.622Z,42.00
2018-03-22T07:03:22.023Z,42.30
2018-03-22T07:05:48.405Z,42.20
2018-03-22T07:08:14.817Z,41.30
2018-03-22T07:10:41.183Z,41.10
2018-03-22T07:13:08.389Z,41.50
2018-03-22T07:15:34.785Z,41.50
2018-03-22T07:18:01.312Z,41.40
2018-03-22T07:20:28.433Z,41.50
2018-03-22T07:22:54.866Z,41.50
2018-03-22T07:25:21.318Z,40.90
2018-03-22T07:27:48.472Z,40.70
2018-03-22T07:30:14.842Z,40.70
2018-03-22T07:32:41.256Z,40.00
2018-03-22T07:35:07.663Z,39.60
2018-03-22T07:37:34.168Z,39.60
2018-03-22T07:40:00.609Z,40.70
2018-03-22T07:42:27.741Z,39.80
2018-03-22T07:44:54.173Z,39.80
2018-03-22T07:47:20.579Z,39.70
2018-03-22T07:49:47.018Z,39.10
2018-03-22T07:52:13.405Z,38.80
2018-03-22T07:54:39.832Z,39.80
2018-03-22T07:57:06.932Z,39.00
2018-03-22T07:59:33.396Z,39.00
2018-03-22T08:02:00.537Z,38.30
2018-03-22T08:04:26.915Z,38.30
2018-03-22T08:06:53.326Z,37.90
2018-03-22T08:09:20.423Z,37.60
2018-03-22T08:11:46.854Z,37.60
2018-03-22T08:14:13.269Z,36.70
2018-03-22T08:16:39.717Z,37.10
2018-03-22T08:19:06.166Z,36.40
2018-03-22T08:21:32.584Z,37.10
2018-03-22T08:23:58.983Z,38.00
2018-03-22T08:26:25.386Z,38.10
2018-03-22T08:28:52.558Z,37.40
2018-03-22T08:31:18.953Z,37.40
2018-03-22T08:33:45.334Z,40.40
2018-03-22T08:36:11.797Z,37.60
2018-03-22T08:38:38.946Z,36.00
2018-03-22T08:41:05.344Z,35.90
2018-03-22T08:43:31.757Z,35.00
2018-03-22T08:45:58.156Z,33.40
2018-03-22T08:48:25.341Z,35.40
2018-03-22T08:50:51.738Z,35.40
2018-03-22T08:53:18.937Z,35.40
2018-03-22T08:55:45.304Z,35.30
2018-03-22T08:58:11.785Z,36.20
2018-03-22T09:00:38.187Z,35.90
2018-03-22T09:03:04.582Z,34.60
2018-03-22T09:05:31.111Z,34.30
2018-03-22T09:07:57.537Z,33.30
2018-03-22T09:10:24.817Z,34.40
2018-03-22T09:12:51.218Z,34.30
2018-03-22T09:15:17.744Z,32.60
2018-03-22T09:17:44.165Z,31.20
2018-03-22T09:20:10.581Z,32.40
2018-03-22T09:22:36.989Z,31.60
2018-03-22T09:25:04.246Z,33.40
2018-03-22T09:27:30.672Z,33.40
2018-03-22T09:29:57.867Z,32.60
2018-03-22T09:32:24.347Z,32.60
2018-03-22T09:34:50.799Z,31.50
2018-03-22T09:37:17.134Z,32.00
2018-03-22T09:39:43.568Z,31.20
2018-03-22T09:42:09.974Z,31.90
2018-03-22T09:44:37.124Z,31.30
2018-03-22T09:47:04.293Z,31.40
2018-03-22T09:49:30.666Z,31.50
2018-03-22T09:51:57.285Z,30.30
2018-03-22T09:54:23.638Z,31.90
2018-03-22T09:56:50.184Z,30.00
2018-03-22T09:59:16.552Z,30.40
2018-03-22T10:01:43.015Z,30.80
2018-03-22T10:04:09.402Z,31.20
2018-03-22T10:06:36.528Z,31.80
2018-03-22T10:09:03.030Z,31.80
2018-03-22T10:11:29.419Z,32.20
2018-03-22T10:13:55.857Z,32.30
2018-03-22T10:16:22.260Z,32.60
2018-03-22T10:18:49.441Z,32.80
2018-03-22T10:21:15.835Z,32.80
2018-03-22T10:23:42.205Z,32.90
2018-03-22T10:26:08.615Z,33.00
2018-03-22T10:28:35.789Z,33.50
2018-03-22T10:31:02.188Z,33.40
2018-03-22T10:33:29.461Z,33.20
2018-03-22T10:35:55.946Z,33.20
2018-03-22T10:38:22.316Z,33.20
2018-03-22T10:40:49.437Z,33.10
2018-03-22T10:43:15.862Z,33.30
2018-03-22T10:45:42.246Z,33.50
2018-03-22T10:48:08.689Z,33.90
2018-03-22T10:50:35.067Z,33.90
2018-03-22T10:53:01.510Z,33.30
2018-03-22T10:55:28.681Z,33.40
2018-03-22T10:57:55.111Z,33.30
2018-03-22T11:00:27.481Z,34.00
2018-03-22T11:02:55.769Z,33.70
2018-03-22T11:05:22.199Z,34.70
2018-03-22T11:07:48.593Z,34.90
2018-03-22T11:10:15.754Z,35.50
2018-03-22T11:12:42.863Z,35.20
2018-03-22T11:15:09.291Z,35.20
2018-03-22T11:17:35.672Z,36.00
2018-03-22T11:20:02.104Z,36.70
2018-03-22T11:22:28.547Z,37.50
2018-03-22T11:24:54.982Z,37.80
2018-03-22T11:27:21.491Z,38.30
2018-03-22T11:29:48.658Z,38.30
2018-03-22T11:32:15.078Z,38.20
2018-03-22T11:34:41.437Z,38.10
2018-03-22T11:37:07.835Z,38.70
2018-03-22T11:39:34.968Z,40.30
2018-03-22T11:42:01.438Z,40.30
2018-03-22T11:44:27.879Z,41.30
2018-03-22T11:46:54.384Z,42.00
2018-03-22T11:49:20.779Z,42.40
2018-03-22T11:51:47.183Z,43.10
2018-03-22T11:54:13.598Z,44.80
2018-03-22T11:56:39.988Z,45.20
2018-03-22T11:59:07.154Z,44.20
2018-03-22T12:01:33.626Z,44.00
2018-03-22T12:04:00.180Z,42.80
2018-03-22T12:06:26.618Z,43.50
2018-03-22T12:08:53.038Z,43.20
2018-03-22T12:11:19.463Z,43.50
2018-03-22T12:13:45.946Z,44.50
2018-03-22T12:16:12.394Z,46.90
2018-03-22T12:18:38.774Z,48.40
2018-03-22T12:21:05.174Z,49.10
2018-03-22T12:23:31.570Z,50.90
2018-03-22T12:25:58.756Z,50.00
2018-03-22T12:28:25.153Z,50.00
2018-03-22T12:30:52.300Z,48.50
2018-03-22T12:33:18.753Z,48.50
2018-03-22T12:35:45.249Z,49.50
2018-03-22T12:38:11.672Z,49.40
2018-03-22T12:40:38.027Z,49.40
2018-03-22T12:43:04.430Z,50.30
2018-03-22T12:45:30.844Z,51.00
2018-03-22T12:47:57.376Z,51.10
2018-03-22T12:50:23.747Z,51.00
2018-03-22T12:52:51.047Z,52.20
2018-03-22T12:55:17.446Z,52.60
2018-03-22T12:57:43.921Z,51.00
2018-03-22T13:00:10.323Z,51.40
2018-03-22T13:02:36.768Z,51.60
2018-03-22T13:05:03.162Z,54.00
2018-03-22T13:07:30.326Z,55.80
2018-03-22T13:09:56.681Z,55.20
2018-03-22T13:12:23.041Z,56.20
2018-03-22T13:14:49.487Z,58.00
2018-03-22T13:17:15.929Z,58.00
2018-03-22T13:19:43.086Z,58.80
2018-03-22T13:22:09.526Z,58.80
2018-03-22T13:24:36.060Z,59.00
2018-03-22T13:27:02.530Z,60.70
2018-03-22T13:29:28.994Z,59.30
2018-03-22T13:31:55.605Z,58.90
2018-03-22T13:34:22.869Z,59.50
2018-03-22T13:36:49.272Z,59.50
2018-03-22T13:39:15.650Z,62.20
2018-03-22T13:41:42.827Z,67.60
2018-03-22T13:44:09.447Z,67.60
2018-03-22T13:46:35.874Z,67.40
2018-03-22T13:49:03.086Z,69.80
2018-03-22T13:51:29.437Z,69.70
2018-03-22T13:53:55.887Z,69.00
2018-03-22T13:56:23.039Z,68.10
2018-03-22T13:58:49.464Z,68.20
2018-03-22T14:01:16.611Z,72.00
2018-03-22T14:03:43.806Z,71.00
2018-03-22T14:06:10.198Z,71.00
2018-03-22T14:08:36.658Z,68.90
2018-03-22T14:11:03.046Z,67.20
2018-03-22T14:13:29.492Z,68.90
2018-03-22T14:15:55.895Z,68.90
2018-03-22T14:18:22.289Z,68.00
2018-03-22T14:20:48.665Z,69.00
2018-03-22T14:23:15.068Z,67.10
2018-03-22T14:25:41.495Z,65.40
2018-03-22T14:28:07.973Z,66.30
2018-03-22T14:30:35.118Z,67.60
2018-03-22T14:33:01.557Z,67.60
2018-03-22T14:35:27.993Z,67.90
2018-03-22T14:37:55.206Z,66.30
2018-03-22T14:40:21.625Z,66.40
2018-03-22T14:42:48.034Z,65.80
2018-03-22T14:45:14.445Z,65.20
2018-03-22T14:47:40.910Z,65.70
2018-03-22T14:50:07.302Z,68.00
2018-03-22T14:52:33.747Z,67.30
2018-03-22T14:55:00.184Z,67.20
2018-03-22T14:57:26.601Z,67.10
2018-03-22T14:59:53.060Z,68.00
2018-03-22T15:02:19.487Z,68.50
2018-03-22T15:04:46.047Z,70.60
2018-03-22T15:07:12.607Z,71.50
2018-03-22T15:09:39.071Z,72.20
2018-03-22T15:12:05.465Z,71.50
2018-03-22T15:14:31.980Z,71.70
2018-03-22T15:16:58.346Z,72.00
2018-03-22T15:19:24.847Z,71.40
2018-03-22T15:21:51.399Z,71.30
2018-03-22T15:24:17.835Z,71.90
2018-03-22T15:26:44.337Z,72.80
2018-03-22T15:29:10.798Z,73.30
2018-03-22T15:31:38.106Z,72.70
2018-03-22T15:34:04.558Z,72.50
2018-03-22T15:36:31.027Z,72.80
2018-03-22T15:38:58.230Z,72.80
2018-03-22T15:41:24.946Z,72.80
2018-03-22T15:43:51.610Z,72.40
2018-03-22T15:46:18.048Z,72.00
2018-03-22T15:48:44.748Z,71.60
2018-03-22T15:51:11.185Z,72.30
2018-03-22T15:53:37.645Z,71.90
2018-03-22T15:56:04.117Z,71.40
2018-03-22T15:58:31.329Z,73.30
2018-03-22T16:00:57.759Z,73.30
2018-03-22T16:03:24.158Z,74.20
2018-03-22T16:05:50.628Z,74.50
2018-03-22T16:08:17.116Z,74.80
2018-03-22T16:10:43.749Z,76.80
2018-03-22T16:13:10.250Z,77.30
2018-03-22T16:15:36.682Z,77.40
2018-03-22T16:18:03.126Z,77.20
2018-03-22T16:20:29.546Z,81.10
2018-03-22T16:22:55.948Z,79.30
2018-03-22T16:25:22.375Z,81.70
2018-03-22T16:27:48.806Z,81.70
2018-03-22T16:30:15.258Z,81.80
2018-03-22T16:32:41.691Z,81.10
2018-03-22T16:35:08.111Z,81.10
2018-03-22T16:37:34.546Z,81.80
2018-03-22T16:40:01.036Z,83.30
2018-03-22T16:42:27.541Z,83.50
2018-03-22T16:44:53.951Z,87.50
2018-03-22T16:47:20.417Z,90.10
2018-03-22T16:49:46.857Z,91.00
2018-03-22T16:52:13.299Z,90.70
2018-03-22T16:54:39.819Z,92.00
2018-03-22T16:57:06.263Z,92.30
2018-03-22T16:59:32.760Z,92.50
2018-03-22T17:01:59.160Z,93.40
2018-03-22T17:04:25.635Z,92.90
2018-03-22T17:06:51.991Z,92.70
2018-03-22T17:09:18.422Z,93.10
2018-03-22T17:11:44.841Z,93.30
2018-03-22T17:14:11.234Z,93.20
2018-03-22T17:16:38.386Z,93.00
2018-03-22T17:19:05.544Z,92.90
2018-03-22T17:21:32.777Z,93.10
2018-03-22T17:23:59.150Z,93.10
2018-03-22T17:26:25.606Z,92.10
2018-03-22T17:28:52.073Z,92.30
2018-03-22T17:31:18.521Z,91.90
2018-03-22T17:33:44.919Z,92.60
2018-03-22T17:36:11.422Z,93.00
2018-03-22T17:38:37.863Z,92.80
2018-03-22T17:41:04.310Z,93.40
2018-03-22T17:43:30.732Z,94.00
2018-03-22T17:45:57.272Z,93.60
2018-03-22T17:48:23.873Z,93.50
2018-03-22T17:50:50.428Z,93.50
2018-03-22T17:53:16.930Z,93.70
2018-03-22T17:55:43.359Z,93.60
2018-03-22T17:58:10.643Z,93.60
2018-03-22T18:00:37.092Z,93.60
2018-03-22T18:03:03.645Z,93.60
2018-03-22T18:05:30.195Z,93.20
2018-03-22T18:07:56.614Z,93.20
2018-03-22T18:10:23.091Z,93.40
2018-03-22T18:12:49.622Z,93.60
2018-03-22T18:15:16.119Z,93.80
2018-03-22T18:17:42.574Z,93.70
2018-03-22T18:20:09.076Z,93.40
2018-03-22T18:22:35.522Z,92.90
2018-03-22T18:25:02.028Z,92.60
2018-03-22T18:27:28.525Z,93.10
2018-03-22T18:29:55.002Z,93.10
2018-03-22T18:32:21.482Z,92.60
2018-03-22T18:34:48.017Z,92.40
2018-03-22T18:37:14.523Z,93.50
2018-03-22T18:39:41.003Z,93.20
2018-03-22T18:42:07.431Z,93.70
2018-03-22T18:44:34.034Z,94.00
2018-03-22T18:47:01.278Z,94.20
2018-03-22T18:49:27.756Z,94.30
2018-03-22T18:51:54.253Z,93.90
2018-03-22T18:54:21.406Z,93.50
2018-03-22T18:56:48.613Z,93.20
2018-03-22T18:59:15.215Z,93.20
2018-03-22T19:01:42.592Z,93.70
2018-03-22T19:04:09.054Z,93.40
2018-03-22T19:06:35.520Z,93.60
2018-03-22T19:09:02.801Z,92.30
2018-03-22T19:11:29.231Z,92.30
2018-03-22T19:13:55.665Z,92.40
2018-03-22T19:16:22.104Z,92.10
2018-03-22T19:18:48.565Z,92.20
2018-03-22T19:21:15.030Z,92.10
2018-03-22T19:23:42.195Z,92.10
2018-03-22T19:26:08.622Z,92.10
2018-03-22T19:28:35.101Z,92.30
2018-03-22T19:31:01.548Z,92.30
2018-03-22T19:33:28.897Z,92.90
2018-03-22T19:35:55.339Z,92.70
2018-03-22T19:38:22.512Z,92.60
2018-03-22T19:40:49.023Z,92.60
2018-03-22T19:43:16.219Z,93.30
2018-03-22T19:45:42.672Z,93.30
2018-03-22T19:48:09.104Z,93.10
2018-03-22T19:50:35.564Z,93.60
2018-03-22T19:53:01.962Z,93.50
2018-03-22T19:55:28.611Z,93.30
2018-03-22T19:57:55.029Z,93.20
2018-03-22T20:00:21.825Z,93.00
2018-03-22T20:02:48.287Z,92.50
2018-03-22T20:05:14.715Z,92.60
2018-03-22T20:07:41.167Z,92.50
2018-03-22T20:10:07.598Z,92.80
2018-03-22T20:12:34.072Z,92.70
2018-03-22T20:15:00.516Z,92.10
2018-03-22T20:17:27.027Z,92.40
2018-03-22T20:19:53.495Z,93.20
2018-03-22T20:22:19.972Z,93.00
2018-03-22T20:24:46.419Z,92.60
2018-03-22T20:27:12.977Z,91.70
2018-03-22T20:29:39.509Z,92.00
2018-03-22T20:32:06.019Z,91.60
2018-03-22T20:34:32.573Z,92.10
2018-03-22T20:36:59.081Z,92.20
2018-03-22T20:39:26.749Z,91.90
2018-03-22T20:41:53.939Z,91.50
2018-03-22T20:44:20.477Z,91.50
2018-03-22T20:46:46.962Z,91.60
2018-03-22T20:49:13.399Z,91.40
2018-03-22T20:51:39.913Z,91.80
2018-03-22T20:54:06.532Z,92.10
2018-03-22T20:56:33.085Z,92.30
2018-03-22T20:58:59.678Z,91.40
2018-03-22T21:01:26.090Z,92.30
2018-03-22T21:03:52.561Z,92.40
2018-03-22T21:06:18.991Z,92.50
2018-03-22T21:08:45.447Z,93.20
2018-03-22T21:11:11.963Z,93.40
2018-03-22T21:13:38.460Z,93.40
2018-03-22T21:16:05.732Z,93.40
2018-03-22T21:18:32.250Z,93.40
2018-03-22T21:20:58.730Z,92.90
2018-03-22T21:23:25.142Z,92.70
2018-03-22T21:25:51.668Z,92.60
2018-03-22T21:28:18.065Z,92.80
2018-03-22T21:30:46.466Z,92.80
2018-03-22T21:33:13.021Z,91.50
2018-03-22T21:35:39.621Z,92.10
2018-03-22T21:38:06.278Z,92.10
2018-03-22T21:40:33.459Z,92.40
2018-03-22T21:42:59.944Z,92.40
2018-03-22T21:45:26.445Z,92.40
2018-03-22T21:47:52.862Z,93.00
2018-03-22T21:50:19.340Z,92.80
2018-03-22T21:52:45.912Z,91.40
2018-03-22T21:55:12.426Z,92.00
2018-03-22T21:57:38.909Z,92.70
2018-03-22T22:00:05.422Z,92.50
2018-03-22T22:02:31.887Z,92.30
2018-03-22T22:04:59.108Z,92.10
2018-03-22T22:07:25.549Z,92.10
2018-03-22T22:09:52.034Z,91.70
2018-03-22T22:12:18.439Z,90.60
2018-03-22T22:14:45.626Z,91.70
2018-03-22T22:17:12.106Z,91.70
2018-03-22T22:19:39.425Z,91.10
2018-03-22T22:22:05.916Z,91.10
2018-03-22T22:24:32.338Z,90.20
2018-03-22T22:26:59.546Z,90.60
2018-03-22T22:29:25.985Z,90.60
2018-03-22T22:31:52.464Z,90.20
2018-03-22T22:34:18.850Z,90.20
2018-03-22T22:36:45.251Z,89.60
2018-03-22T22:39:11.791Z,90.20
2018-03-22T22:41:38.260Z,90.00
2018-03-22T22:44:04.718Z,90.60
2018-03-22T22:46:31.861Z,91.40
2018-03-22T22:48:59.046Z,90.70
2018-03-22T22:51:25.429Z,90.60
2018-03-22T22:53:51.889Z,90.30
2018-03-22T22:56:18.377Z,90.00
2018-03-22T22:58:44.828Z,90.30
2018-03-22T23:01:11.276Z,90.30
2018-03-22T23:03:38.439Z,90.00
2018-03-22T23:06:04.840Z,90.00
2018-03-22T23:08:32.013Z,90.70
2018-03-22T23:10:58.502Z,90.60
2018-03-22T23:13:24.939Z,90.80
2018-03-22T23:15:51.346Z,91.00
2018-03-22T23:18:17.835Z,91.20
2018-03-22T23:20:45.085Z,91.60
2018-03-22T23:25:44.889Z,91.70
2018-03-22T23:28:12.118Z,91.90
2018-03-22T23:30:38.727Z,91.90
2018-03-22T23:33:05.369Z,92.20
2018-03-22T23:35:32.556Z,91.50
2018-03-22T23:37:59.093Z,91.80
2018-03-22T23:40:26.334Z,91.80
2018-03-22T23:42:52.844Z,91.80
2018-03-22T23:45:19.272Z,92.20
2018-03-22T23:47:45.746Z,92.50
2018-03-22T23:50:12.931Z,92.40
2018-03-22T23:52:39.361Z,92.40
2018-03-22T23:55:06.527Z,91.70
2018-03-22T23:57:32.931Z,91.80
2018-03-22T23:59:59.314Z,92.00
